Time;durP1;ratioP1;P1;durP2;ratioP2;P2;SDS_P1;SDS_P2;PMS_P1;PMS_P2;Temp;Humidity;BMP_temperature;BMP_pressure;BME280_temperature;BME280_humidity;BME280_pressure;Samples;Min_cycle;Max_cycle;Signal;HPM_P1;HPM_P2
2022/03/08 00:00:32;;;;;;;4.32;3.17;;;16.20;42.60;;;;;;4978347;28;95126;-67
2022/03/08 00:02:59;;;;;;;4.57;3.55;;;16.30;42.80;;;;;;4974772;28;92684;-66
2022/03/08 00:05:25;;;;;;;3.58;3.20;;;16.20;42.70;;;;;;4973605;28;92677;-66
2022/03/08 00:07:52;;;;;;;5.03;3.30;;;16.30;42.70;;;;;;4972633;28;93197;-65
2022/03/08 00:10:17;;;;;;;5.15;3.75;;;16.20;42.60;;;;;;4973387;28;92785;-66
2022/03/08 00:12:47;;;;;;;3.88;3.22;;;16.20;42.50;;;;;;4972871;28;93050;-67
2022/03/08 00:15:15;;;;;;;6.15;3.50;;;16.20;42.50;;;;;;4972538;28;91946;-66
2022/03/08 00:17:41;;;;;;;4.38;3.40;;;16.20;42.50;;;;;;4972515;28;93075;-68
2022/03/08 00:20:08;;;;;;;5.40;3.72;;;16.20;42.60;;;;;;4972394;28;92740;-66
2022/03/08 00:22:37;;;;;;;4.35;3.25;;;16.20;42.50;;;;;;4971808;28;95045;-66
2022/03/08 00:25:04;;;;;;;5.13;3.60;;;16.20;42.50;;;;;;4972532;28;92749;-67
2022/03/08 00:27:30;;;;;;;5.22;3.30;;;16.20;42.50;;;;;;4971545;28;95257;-67
2022/03/08 00:29:56;;;;;;;5.53;3.40;;;16.20;42.40;;;;;;4971489;28;93095;-66
2022/03/08 00:32:22;;;;;;;4.70;3.55;;;16.10;42.40;;;;;;4971503;28;93007;-66
2022/03/08 00:34:48;;;;;;;5.13;3.42;;;16.10;42.40;;;;;;4971959;28;94031;-66
2022/03/08 00:37:13;;;;;;;4.78;3.60;;;16.10;42.40;;;;;;4970864;28;99695;-66
2022/03/08 00:39:39;;;;;;;3.88;3.30;;;16.10;42.30;;;;;;4972158;28;92215;-67
2022/03/08 00:42:05;;;;;;;4.50;3.47;;;16.10;42.30;;;;;;4971024;28;92885;-66
2022/03/08 00:44:31;;;;;;;4.68;3.60;;;16.10;42.30;;;;;;4971515;28;93044;-66
2022/03/08 00:46:57;;;;;;;4.60;3.40;;;16.10;42.30;;;;;;4969587;28;96102;-66
2022/03/08 00:49:23;;;;;;;4.47;3.75;;;16.10;42.30;;;;;;4971838;28;94663;-67
2022/03/08 00:51:49;;;;;;;4.05;3.40;;;16.10;42.20;;;;;;4970044;28;97899;-68
2022/03/08 00:54:14;;;;;;;4.72;3.40;;;16.10;42.30;;;;;;4971886;28;92569;-67
2022/03/08 00:56:41;;;;;;;4.95;3.80;;;16.10;42.20;;;;;;4970123;28;94436;-65
2022/03/08 00:59:07;;;;;;;5.18;4.00;;;16.10;42.20;;;;;;4970653;28;93616;-67
2022/03/08 01:01:33;;;;;;;4.18;3.30;;;16.10;42.20;;;;;;4970792;28;92853;-65
2022/03/08 01:03:59;;;;;;;4.57;3.42;;;16.00;42.20;;;;;;4972467;28;92073;-67
2022/03/08 01:06:24;;;;;;;4.88;3.60;;;16.00;42.00;;;;;;4970223;28;93128;-65
2022/03/08 01:08:50;;;;;;;4.78;3.67;;;16.00;42.00;;;;;;4953479;28;93947;-65
2022/03/08 01:11:15;;;;;;;4.38;3.75;;;16.00;42.10;;;;;;4969504;28;94908;-65
2022/03/08 01:13:41;;;;;;;5.30;3.78;;;16.00;42.00;;;;;;4970522;28;92469;-66
2022/03/08 01:16:06;;;;;;;5.53;3.70;;;16.00;42.10;;;;;;4970376;28;94949;-65
2022/03/08 01:18:32;;;;;;;4.38;3.60;;;16.00;42.00;;;;;;4971010;28;100234;-65
2022/03/08 01:20:58;;;;;;;5.13;3.70;;;16.00;42.00;;;;;;4970630;28;92600;-66
2022/03/08 01:23:24;;;;;;;4.45;3.67;;;16.00;42.00;;;;;;4970591;28;92598;-66
2022/03/08 01:25:49;;;;;;;5.60;4.00;;;16.00;42.00;;;;;;4970134;28;93225;-66
2022/03/08 01:28:15;;;;;;;4.50;3.70;;;16.00;42.00;;;;;;4970565;28;102070;-65
2022/03/08 01:30:41;;;;;;;5.03;3.97;;;16.00;42.00;;;;;;4970364;28;92699;-65
2022/03/08 01:33:06;;;;;;;5.82;3.70;;;16.00;42.00;;;;;;4971136;28;92576;-65
2022/03/08 01:35:32;;;;;;;4.43;3.65;;;15.90;41.90;;;;;;4969768;28;96569;-65
2022/03/08 01:37:58;;;;;;;4.95;4.05;;;15.90;41.80;;;;;;4970882;28;96103;-66
2022/03/08 01:40:24;;;;;;;4.55;3.67;;;15.90;41.80;;;;;;4972137;28;93033;-65
2022/03/08 01:42:50;;;;;;;4.95;3.72;;;15.90;41.90;;;;;;4971253;28;92430;-67
2022/03/08 01:45:19;;;;;;;5.78;4.07;;;15.90;41.90;;;;;;4972195;28;93220;-65
2022/03/08 01:47:45;;;;;;;4.78;3.78;;;15.90;41.80;;;;;;4970199;28;92849;-65
2022/03/08 01:50:12;;;;;;;4.40;3.85;;;15.90;41.80;;;;;;4970488;28;93142;-65
2022/03/08 01:52:39;;;;;;;5.00;3.90;;;15.90;42.90;;;;;;4970840;28;92076;-65
2022/03/08 01:55:05;;;;;;;4.88;3.83;;;15.90;41.80;;;;;;4969780;28;92714;-67
2022/03/08 01:57:32;;;;;;;4.63;3.53;;;15.90;41.70;;;;;;4971110;28;93430;-65
2022/03/08 01:59:58;;;;;;;4.38;3.65;;;15.90;41.80;;;;;;4970084;28;94975;-65
2022/03/08 02:02:25;;;;;;;4.60;3.78;;;15.90;41.70;;;;;;4971007;28;93070;-65
2022/03/08 02:04:51;;;;;;;5.63;3.85;;;15.90;41.80;;;;;;4970059;28;93201;-65
2022/03/08 02:07:18;;;;;;;5.05;4.18;;;15.90;41.80;;;;;;4970115;28;93360;-66
2022/03/08 02:09:44;;;;;;;4.85;3.83;;;15.80;41.70;;;;;;4970249;28;92539;-65
2022/03/08 02:12:10;;;;;;;4.63;3.63;;;15.80;41.60;;;;;;4969637;28;92689;-65
2022/03/08 02:14:36;;;;;;;4.55;3.70;;;15.80;41.60;;;;;;4969994;28;94157;-66
2022/03/08 02:17:03;;;;;;;5.18;3.65;;;15.80;41.80;;;;;;4970362;28;91847;-69
2022/03/08 02:19:28;;;;;;;4.97;3.88;;;15.90;41.70;;;;;;4969676;28;92756;-67
2022/03/08 02:21:55;;;;;;;5.13;4.05;;;15.90;41.70;;;;;;4952325;28;92596;-67
2022/03/08 02:24:21;;;;;;;4.85;3.95;;;15.90;41.70;;;;;;4967131;28;96560;-67
2022/03/08 02:26:46;;;;;;;5.70;4.30;;;15.80;41.60;;;;;;4969762;28;95116;-69
2022/03/08 02:29:12;;;;;;;4.40;3.38;;;15.80;41.60;;;;;;4952311;28;92426;-68
2022/03/08 02:31:38;;;;;;;5.07;4.22;;;15.80;41.60;;;;;;4970623;28;92756;-66
2022/03/08 02:34:04;;;;;;;4.32;3.88;;;15.80;41.60;;;;;;4969250;28;93541;-66
2022/03/08 02:36:30;;;;;;;5.18;3.92;;;15.80;41.60;;;;;;4969321;28;93854;-66
2022/03/08 02:38:56;;;;;;;4.18;3.63;;;15.80;41.60;;;;;;4969720;28;92915;-66
2022/03/08 02:41:21;;;;;;;4.72;3.95;;;15.80;41.60;;;;;;4970692;28;91771;-66
2022/03/08 02:43:47;;;;;;;5.30;4.15;;;15.70;41.50;;;;;;4968575;28;93168;-66
2022/03/08 02:46:13;;;;;;;5.30;4.13;;;15.80;41.60;;;;;;4969446;28;93186;-67
2022/03/08 02:48:38;;;;;;;5.43;3.78;;;15.80;41.60;;;;;;4968309;28;95509;-66
2022/03/08 02:51:04;;;;;;;4.90;3.80;;;15.70;42.60;;;;;;4969975;28;93052;-66
2022/03/08 02:53:30;;;;;;;4.40;4.00;;;15.70;41.50;;;;;;4968773;28;93174;-67
2022/03/08 02:55:55;;;;;;;4.63;3.85;;;15.70;41.50;;;;;;4970101;28;92904;-67
2022/03/08 02:58:21;;;;;;;5.55;3.97;;;15.70;41.50;;;;;;4968308;28;94943;-67
2022/03/08 03:00:47;;;;;;;5.30;3.90;;;15.70;41.50;;;;;;4970418;28;92925;-66
2022/03/08 03:03:13;;;;;;;6.15;4.07;;;15.70;41.50;;;;;;4968997;28;93576;-67
2022/03/08 03:05:39;;;;;;;4.97;4.00;;;15.70;41.40;;;;;;4972218;28;93462;-67
2022/03/08 03:08:06;;;;;;;5.43;4.22;;;15.70;41.40;;;;;;4973822;28;92518;-67
2022/03/08 03:10:32;;;;;;;5.68;4.03;;;15.70;41.40;;;;;;4972542;28;92745;-67
2022/03/08 03:12:58;;;;;;;4.80;3.97;;;15.70;41.40;;;;;;4971616;28;96546;-67
2022/03/08 03:15:26;;;;;;;4.95;4.00;;;15.70;41.40;;;;;;4972395;28;95816;-66
2022/03/08 03:17:52;;;;;;;4.72;3.83;;;15.60;41.30;;;;;;4973839;28;92911;-67
2022/03/08 03:20:20;;;;;;;4.93;4.25;;;15.60;41.30;;;;;;4973208;28;92938;-67
2022/03/08 03:22:47;;;;;;;5.53;4.38;;;15.70;41.40;;;;;;4973102;28;94369;-66
2022/03/08 03:25:14;;;;;;;6.15;4.53;;;15.70;41.40;;;;;;4972143;28;93774;-67
2022/03/08 03:27:40;;;;;;;5.20;4.03;;;15.60;41.30;;;;;;4973520;28;93008;-67
2022/03/08 03:30:10;;;;;;;4.75;3.55;;;15.60;41.30;;;;;;4973708;28;92372;-67
2022/03/08 03:32:36;;;;;;;5.55;4.10;;;15.60;41.30;;;;;;4972413;28;94852;-67
2022/03/08 03:35:04;;;;;;;5.40;4.20;;;15.60;41.40;;;;;;4973138;28;93061;-67
2022/03/08 03:37:29;;;;;;;5.20;4.30;;;15.60;41.30;;;;;;4971802;28;95371;-67
2022/03/08 03:39:56;;;;;;;4.93;4.18;;;15.60;41.30;;;;;;4973490;28;93030;-67
2022/03/08 03:42:21;;;;;;;5.82;4.47;;;15.60;41.20;;;;;;4972941;28;93803;-67
2022/03/08 03:44:47;;;;;;;4.97;4.28;;;15.60;41.20;;;;;;4973635;28;93025;-67
2022/03/08 03:47:13;;;;;;;5.13;3.90;;;15.60;41.30;;;;;;4972341;28;92523;-67
2022/03/08 03:49:38;;;;;;;5.38;4.15;;;15.60;41.20;;;;;;4954994;28;92638;-67
2022/03/08 03:52:05;;;;;;;5.25;4.22;;;15.60;41.20;;;;;;4972843;28;92492;-69
2022/03/08 03:54:31;;;;;;;4.88;3.80;;;15.60;41.20;;;;;;4972044;28;92614;-66
2022/03/08 03:56:56;;;;;;;5.13;3.97;;;15.60;41.20;;;;;;4972179;28;92883;-68
2022/03/08 03:59:22;;;;;;;5.22;4.18;;;15.60;41.20;;;;;;4971960;28;93021;-67
2022/03/08 05:43:54;;;;;;;4.65;3.70;;;15.60;40.40;;;;;;5261817;22;93766;-69
2022/03/08 05:46:20;;;;;;;5.00;4.32;;;15.60;40.40;;;;;;4950968;28;92595;-67
2022/03/08 05:48:45;;;;;;;4.75;3.88;;;15.60;40.30;;;;;;4951805;28;93010;-66
2022/03/08 05:51:11;;;;;;;5.13;3.88;;;15.70;40.40;;;;;;4949374;28;95471;-67
2022/03/08 05:53:36;;;;;;;5.00;4.10;;;15.70;40.20;;;;;;4951677;28;104957;-67
2022/03/08 05:56:02;;;;;;;4.82;4.10;;;15.70;40.20;;;;;;4951001;28;93136;-67
2022/03/08 05:58:28;;;;;;;4.10;3.65;;;15.70;40.10;;;;;;4950792;28;93169;-67
2022/03/08 06:00:53;;;;;;;3.95;3.63;;;15.70;40.20;;;;;;4950911;28;100915;-67
2022/03/08 06:03:19;;;;;;;3.95;3.40;;;15.70;40.10;;;;;;4949964;28;93863;-67
2022/03/08 06:05:44;;;;;;;3.67;3.28;;;15.80;40.00;;;;;;4952335;28;92468;-67
2022/03/08 06:08:11;;;;;;;4.30;3.72;;;15.90;40.00;;;;;;4951854;28;92029;-67
2022/03/08 06:10:37;;;;;;;3.53;3.20;;;16.00;39.90;;;;;;4950676;28;94461;-70
2022/03/08 06:13:02;;;;;;;3.90;3.50;;;16.10;39.70;;;;;;4950813;28;92699;-66
2022/03/08 06:15:28;;;;;;;3.88;3.33;;;16.30;39.40;;;;;;4949584;28;95490;-68
2022/03/08 06:17:54;;;;;;;4.20;3.20;;;16.40;39.20;;;;;;4950889;28;93055;-67
2022/03/08 06:20:20;;;;;;;10.15;4.30;;;16.50;39.00;;;;;;4950964;28;94065;-69
2022/03/08 06:22:46;;;;;;;5.82;3.13;;;16.70;38.80;;;;;;4949502;28;93724;-67
2022/03/08 06:25:12;;;;;;;6.57;3.65;;;16.80;38.70;;;;;;4950635;28;93045;-67
2022/03/08 06:27:38;;;;;;;5.40;3.42;;;16.80;38.50;;;;;;4951147;28;92759;-67
2022/03/08 06:30:04;;;;;;;6.72;3.13;;;16.90;38.60;;;;;;4950878;28;93745;-67
2022/03/08 06:32:30;;;;;;;6.15;3.28;;;17.00;38.60;;;;;;4951557;28;95510;-66
2022/03/08 06:34:56;;;;;;;6.32;3.30;;;17.00;38.70;;;;;;4950427;28;92510;-68
2022/03/08 06:37:21;;;;;;;5.68;3.15;;;17.10;39.90;;;;;;4951048;28;92413;-68
2022/03/08 06:39:48;;;;;;;5.25;3.15;;;17.10;39.00;;;;;;4949924;28;95304;-68
2022/03/08 06:42:13;;;;;;;6.43;3.17;;;17.10;39.10;;;;;;4953499;28;95539;-68
2022/03/08 06:44:39;;;;;;;4.95;3.00;;;17.10;39.30;;;;;;4952329;28;93130;-67
2022/03/08 06:47:08;;;;;;;7.80;3.55;;;17.10;39.40;;;;;;4954255;28;92595;-67
2022/03/08 06:49:36;;;;;;;25.38;4.45;;;17.00;39.30;;;;;;4952543;28;93702;-67
2022/03/08 06:52:02;;;;;;;20.30;4.05;;;17.00;39.40;;;;;;4953109;28;93421;-67
2022/03/08 06:54:27;;;;;;;10.52;3.70;;;17.00;39.30;;;;;;4952787;28;92867;-66
2022/03/08 06:56:53;;;;;;;12.65;4.10;;;17.00;39.30;;;;;;4954839;28;91855;-67
2022/03/08 06:59:18;;;;;;;14.15;4.95;;;16.90;39.20;;;;;;4951708;28;101611;-66
2022/03/08 07:01:44;;;;;;;9.02;4.47;;;16.90;38.90;;;;;;4953431;28;92775;-66
2022/03/08 07:04:10;;;;;;;8.88;4.32;;;16.80;38.90;;;;;;4951297;28;95378;-67
2022/03/08 07:06:35;;;;;;;10.95;4.60;;;16.80;38.80;;;;;;4954351;28;93044;-66
2022/03/08 07:09:02;;;;;;;10.95;4.22;;;16.80;38.90;;;;;;4953071;28;94370;-66
2022/03/08 07:11:27;;;;;;;13.98;4.60;;;16.80;39.70;;;;;;4953744;28;92949;-66
2022/03/08 07:13:53;;;;;;;14.35;4.60;;;16.80;40.30;;;;;;4953863;28;93170;-65
2022/03/08 07:16:18;;;;;;;16.70;4.75;;;16.80;40.90;;;;;;4954298;28;93878;-68
2022/03/08 07:18:44;;;;;;;10.02;4.70;;;16.90;40.90;;;;;;4952882;28;92808;-65
2022/03/08 07:21:11;;;;;;;12.35;4.35;;;16.90;40.80;;;;;;4954116;28;93710;-64
2022/03/08 07:23:37;;;;;;;8.68;4.57;;;16.90;40.90;;;;;;4952663;28;92593;-65
2022/03/08 07:26:03;;;;;;;10.48;4.80;;;16.80;40.90;;;;;;4953790;28;92959;-65
2022/03/08 07:28:29;;;;;;;6.93;4.80;;;16.80;42.00;;;;;;4952032;28;97559;-66
2022/03/08 07:30:54;;;;;;;9.30;4.72;;;16.70;43.60;;;;;;4954301;28;98633;-66
2022/03/08 07:33:20;;;;;;;11.30;4.65;;;16.70;44.50;;;;;;4952823;28;92836;-67
2022/03/08 07:35:45;;;;;;;11.50;4.82;;;16.70;45.30;;;;;;4953450;28;92572;-66
2022/03/08 07:38:11;;;;;;;10.57;4.53;;;16.60;45.60;;;;;;4952727;28;93154;-66
2022/03/08 07:40:37;;;;;;;10.48;4.95;;;16.60;46.30;;;;;;4954296;28;92525;-65
2022/03/08 07:43:02;;;;;;;12.27;4.68;;;16.50;46.80;;;;;;4953614;28;92582;-65
2022/03/08 07:45:30;;;;;;;11.00;4.85;;;16.50;47.10;;;;;;4955390;28;92308;-64
2022/03/08 07:47:57;;;;;;;12.63;4.93;;;16.50;47.60;;;;;;4954706;28;94349;-66
2022/03/08 07:50:22;;;;;;;8.70;4.70;;;16.50;48.20;;;;;;4953512;28;92893;-65
2022/03/08 07:52:49;;;;;;;9.55;4.55;;;16.50;48.40;;;;;;4951871;28;94948;-65
2022/03/08 07:55:14;;;;;;;12.43;5.10;;;16.50;48.60;;;;;;4954119;28;92523;-65
2022/03/08 07:57:40;;;;;;;8.82;4.57;;;16.50;48.60;;;;;;4951980;28;97786;-66
2022/03/08 08:00:07;;;;;;;8.65;5.07;;;16.50;48.60;;;;;;4952412;28;93072;-66
2022/03/08 08:02:32;;;;;;;10.95;5.45;;;16.40;48.30;;;;;;4952770;28;92655;-67
2022/03/08 08:04:58;;;;;;;9.40;5.35;;;16.40;47.90;;;;;;4952187;28;92860;-66
2022/03/08 08:07:24;;;;;;;7.85;4.43;;;16.40;47.90;;;;;;4952265;28;94346;-67
2022/03/08 08:09:50;;;;;;;8.73;4.90;;;16.30;47.90;;;;;;4953083;28;92213;-67
2022/03/08 08:12:15;;;;;;;10.70;5.32;;;16.30;48.00;;;;;;4953043;28;92779;-66
2022/03/08 08:14:41;;;;;;;7.72;4.53;;;16.30;48.20;;;;;;4952096;28;92928;-67
2022/03/08 08:17:07;;;;;;;6.43;4.55;;;16.20;48.10;;;;;;4951235;28;95425;-67
2022/03/08 08:19:32;;;;;;;8.50;4.85;;;16.20;48.10;;;;;;4951601;28;96920;-66
2022/03/08 08:21:58;;;;;;;6.25;4.63;;;16.20;48.20;;;;;;4952675;28;92536;-66
2022/03/08 08:24:23;;;;;;;8.18;5.00;;;16.20;48.30;;;;;;4952201;28;93758;-67
2022/03/08 08:26:49;;;;;;;6.32;4.32;;;16.10;48.10;;;;;;4952327;28;93105;-67
2022/03/08 08:29:15;;;;;;;10.27;4.57;;;16.10;48.10;;;;;;4952313;28;93969;-66
2022/03/08 08:31:41;;;;;;;10.82;4.68;;;16.10;48.10;;;;;;4952048;28;93065;-66
2022/03/08 08:34:07;;;;;;;8.10;4.22;;;16.10;48.00;;;;;;4953338;28;91899;-66
2022/03/08 08:36:33;;;;;;;10.05;5.20;;;16.10;48.00;;;;;;4951205;28;93853;-66
2022/03/08 08:38:59;;;;;;;7.80;4.10;;;16.10;47.80;;;;;;4952973;28;93619;-66
2022/03/08 08:41:25;;;;;;;5.38;4.35;;;16.10;47.70;;;;;;4951338;28;95483;-68
2022/03/08 08:43:51;;;;;;;9.60;4.45;;;16.10;47.70;;;;;;4934644;28;92550;-66
2022/03/08 08:46:16;;;;;;;8.63;4.45;;;16.10;47.70;;;;;;4951172;28;94359;-67
2022/03/08 08:48:43;;;;;;;6.45;4.43;;;16.10;47.60;;;;;;4952460;28;92851;-68
2022/03/08 08:51:09;;;;;;;8.00;4.07;;;16.10;47.50;;;;;;4952719;28;92499;-68
2022/03/08 08:53:34;;;;;;;9.50;5.05;;;16.10;47.40;;;;;;4952819;28;93077;-66
2022/03/08 08:56:00;;;;;;;6.82;3.92;;;16.10;47.40;;;;;;4953096;28;93233;-70
2022/03/08 08:58:26;;;;;;;8.13;4.13;;;16.10;47.30;;;;;;4952962;28;93161;-68
2022/03/08 09:00:51;;;;;;;6.38;3.83;;;16.10;47.40;;;;;;4952361;28;92880;-68
2022/03/08 09:03:17;;;;;;;7.05;3.88;;;16.10;47.60;;;;;;4951730;28;93055;-68
2022/03/08 09:05:45;;;;;;;7.45;3.85;;;16.10;47.60;;;;;;4950325;28;95448;-68
2022/03/08 09:08:11;;;;;;;7.88;4.25;;;16.10;47.70;;;;;;4951260;28;94028;-68
2022/03/08 09:10:38;;;;;;;4.65;3.47;;;16.10;47.60;;;;;;4951568;28;92892;-68
2022/03/08 09:13:05;;;;;;;6.03;4.30;;;16.10;47.60;;;;;;4952338;28;93668;-69
2022/03/08 09:15:32;;;;;;;7.68;3.60;;;16.10;47.80;;;;;;4950595;28;94153;-69
2022/03/08 09:17:57;;;;;;;7.07;3.88;;;16.10;47.70;;;;;;4951930;28;93144;-69
2022/03/08 09:20:25;;;;;;;6.40;3.60;;;16.10;47.70;;;;;;4951242;28;92661;-68
2022/03/08 09:22:53;;;;;;;8.35;3.85;;;16.10;47.60;;;;;;4952126;28;91743;-69
2022/03/08 09:25:18;;;;;;;7.93;3.88;;;16.10;47.70;;;;;;4951354;28;93038;-68
2022/03/08 09:27:44;;;;;;;4.65;3.33;;;16.10;47.60;;;;;;4954102;28;92890;-67
2022/03/08 09:30:10;;;;;;;6.03;3.83;;;16.10;47.70;;;;;;4951126;28;95354;-68
2022/03/08 09:32:36;;;;;;;6.13;3.63;;;16.20;47.70;;;;;;4950946;28;92517;-68
2022/03/08 09:35:02;;;;;;;6.60;3.45;;;16.20;47.70;;;;;;4951442;28;93096;-68
2022/03/08 09:37:30;;;;;;;6.15;3.35;;;16.20;47.70;;;;;;4950852;28;95529;-68
2022/03/08 09:39:56;;;;;;;6.45;3.40;;;16.20;47.70;;;;;;4951454;28;92563;-68
2022/03/08 09:42:22;;;;;;;9.30;3.35;;;16.10;47.70;;;;;;4951312;28;92546;-67
2022/03/08 09:44:48;;;;;;;8.20;3.40;;;16.20;47.60;;;;;;4950415;28;93084;-68
2022/03/08 09:47:18;;;;;;;8.98;3.35;;;16.20;47.50;;;;;;4950236;28;94561;-67
2022/03/08 09:49:44;;;;;;;5.15;3.28;;;16.20;47.40;;;;;;4950570;28;92441;-67
2022/03/08 09:52:10;;;;;;;11.80;3.17;;;16.20;47.30;;;;;;4950939;28;92670;-67
2022/03/08 09:54:36;;;;;;;4.80;3.20;;;16.20;47.20;;;;;;4949591;28;95305;-68
2022/03/08 09:57:14;;;;;;;4.88;3.08;;;16.20;47.10;;;;;;4950912;28;95134;-67
2022/03/08 09:59:41;;;;;;;5.43;3.58;;;16.20;46.90;;;;;;4951235;28;92932;-68
2022/03/08 10:02:06;;;;;;;4.72;2.80;;;16.20;46.90;;;;;;4951374;28;92968;-68
2022/03/08 10:04:32;;;;;;;6.28;2.90;;;16.20;46.80;;;;;;4950384;28;93064;-67
2022/03/08 10:06:58;;;;;;;4.85;2.92;;;16.30;46.70;;;;;;4950424;28;92781;-67
2022/03/08 10:09:24;;;;;;;5.57;2.88;;;16.30;46.60;;;;;;4950035;28;92965;-68
2022/03/08 10:11:52;;;;;;;4.40;2.88;;;16.30;46.50;;;;;;4950521;28;92012;-68
2022/03/08 10:14:38;;;;;;;3.75;2.80;;;16.30;46.30;;;;;;4948410;28;93171;-68
2022/03/08 10:17:05;;;;;;;4.00;2.97;;;16.30;46.20;;;;;;4950292;28;92981;-68
2022/03/08 10:19:46;;;;;;;5.75;2.95;;;16.30;46.10;;;;;;4949307;28;95445;-66
2022/03/08 10:22:24;;;;;;;5.00;3.20;;;16.40;46.00;;;;;;4950446;28;93123;-68
2022/03/08 10:24:50;;;;;;;6.25;2.90;;;16.40;45.80;;;;;;4950409;28;93267;-68
2022/03/08 10:27:16;;;;;;;5.05;2.72;;;16.40;45.80;;;;;;4950362;28;93816;-68
2022/03/08 10:29:42;;;;;;;4.72;2.95;;;16.40;45.70;;;;;;4950749;28;92589;-67
2022/03/08 10:32:19;;;;;;;3.30;2.35;;;16.40;45.60;;;;;;4950892;28;92603;-68
2022/03/08 10:34:50;;;;;;;5.30;2.45;;;16.40;45.60;;;;;;4950061;28;94416;-68
2022/03/08 10:37:20;;;;;;;3.83;2.60;;;16.40;45.40;;;;;;4950586;28;92812;-68
2022/03/08 10:39:56;;;;;;;3.75;2.63;;;16.40;45.30;;;;;;4950268;28;92565;-68
2022/03/08 10:42:30;;;;;;;4.05;2.72;;;16.40;45.30;;;;;;4949366;28;92754;-68
2022/03/08 10:45:08;;;;;;;5.35;2.70;;;16.40;45.30;;;;;;4948110;28;96672;-68
2022/03/08 10:47:45;;;;;;;3.83;2.47;;;16.50;45.20;;;;;;4949591;28;96523;-68
2022/03/08 10:50:13;;;;;;;4.40;2.38;;;16.50;45.10;;;;;;4951465;28;92508;-67
2022/03/08 10:52:41;;;;;;;3.70;2.70;;;16.50;45.10;;;;;;4950863;28;93004;-68
2022/03/08 10:55:14;;;;;;;3.83;2.33;;;16.50;45.10;;;;;;4932078;28;94340;-68
2022/03/08 10:57:54;;;;;;;3.95;2.30;;;16.50;44.90;;;;;;4949939;28;92600;-68
2022/03/08 11:00:25;;;;;;;3.92;2.40;;;16.50;44.70;;;;;;4951294;28;92524;-68
2022/03/08 11:02:53;;;;;;;2.75;2.45;;;16.50;44.80;;;;;;4950894;28;91768;-68
2022/03/08 11:05:22;;;;;;;3.55;2.58;;;16.50;44.70;;;;;;4950604;28;94191;-68
2022/03/08 11:07:48;;;;;;;3.58;2.13;;;16.50;44.70;;;;;;4952042;28;92774;-68
2022/03/08 11:10:21;;;;;;;2.92;2.40;;;16.50;44.60;;;;;;4951210;28;95547;-67
2022/03/08 11:12:47;;;;;;;5.03;2.55;;;16.50;44.60;;;;;;4954026;28;92548;-67
2022/03/08 11:15:15;;;;;;;6.65;2.45;;;16.50;44.60;;;;;;4950822;28;94333;-68
2022/03/08 11:17:44;;;;;;;3.30;2.20;;;16.50;44.50;;;;;;4951207;28;95579;-68
2022/03/08 11:20:11;;;;;;;4.10;2.22;;;16.50;44.50;;;;;;4950152;28;92770;-68
2022/03/08 11:22:38;;;;;;;2.30;2.10;;;16.50;44.40;;;;;;4950284;28;92868;-68
2022/03/08 11:25:09;;;;;;;3.90;2.35;;;16.50;44.40;;;;;;4950157;28;93867;-68
2022/03/08 11:27:38;;;;;;;3.05;2.28;;;16.50;44.40;;;;;;4954014;28;94027;-68
2022/03/08 11:30:05;;;;;;;2.45;2.10;;;16.50;44.40;;;;;;4953421;28;92803;-68
2022/03/08 11:32:59;;;;;;;11.05;2.30;;;16.50;44.40;;;;;;4953249;28;93147;-68
2022/03/08 11:35:48;;;;;;;2.83;2.08;;;16.50;44.20;;;;;;4933758;28;95825;-68
2022/03/08 11:38:14;;;;;;;3.10;2.30;;;16.50;44.40;;;;;;4951926;28;96291;-68
2022/03/08 11:40:57;;;;;;;3.92;2.30;;;16.50;44.40;;;;;;4952416;28;92678;-68
2022/03/08 11:43:43;;;;;;;4.25;2.50;;;16.50;44.40;;;;;;4952053;28;92597;-68
2022/03/08 11:46:21;;;;;;;3.08;2.30;;;16.50;44.30;;;;;;4951813;28;92619;-68
2022/03/08 11:48:56;;;;;;;2.70;2.08;;;16.50;44.30;;;;;;4951862;28;93244;-68
2022/03/08 11:51:23;;;;;;;4.53;2.30;;;16.50;44.30;;;;;;4952878;28;93087;-68
2022/03/08 11:53:59;;;;;;;2.75;2.10;;;16.50;44.20;;;;;;4952317;28;93953;-67
2022/03/08 11:56:25;;;;;;;3.30;2.20;;;16.50;44.20;;;;;;4952466;28;94232;-68
2022/03/08 11:58:50;;;;;;;3.08;2.20;;;16.40;44.20;;;;;;4952387;28;92668;-67
2022/03/08 12:01:30;;;;;;;3.60;2.45;;;16.50;44.30;;;;;;4951129;28;95316;-68
2022/03/08 12:04:04;;;;;;;2.50;2.30;;;16.50;44.20;;;;;;4953162;28;93033;-68
2022/03/08 12:06:37;;;;;;;3.78;2.17;;;16.40;44.20;;;;;;4952689;28;93729;-68
2022/03/08 12:09:07;;;;;;;;;;;16.40;44.20;;;;;;4952569;28;92967;-68
2022/03/08 12:11:38;;;;;;;2.97;2.30;;;16.40;44.20;;;;;;4953417;28;92611;-68
2022/03/08 12:14:03;;;;;;;2.90;2.10;;;16.40;44.20;;;;;;4951694;28;92945;-67
2022/03/08 12:16:29;;;;;;;2.80;2.10;;;16.40;44.20;;;;;;4950829;28;94123;-67
2022/03/08 12:18:57;;;;;;;3.20;2.22;;;16.40;44.20;;;;;;4952421;28;93919;-67
2022/03/08 12:21:23;;;;;;;2.75;2.00;;;16.40;44.10;;;;;;4951530;28;93046;-68
2022/03/08 12:24:02;;;;;;;2.30;2.10;;;16.40;44.10;;;;;;4950292;28;92672;-68
2022/03/08 12:26:28;;;;;;;2.85;2.05;;;16.40;44.00;;;;;;4949785;28;96565;-69
2022/03/08 12:29:09;;;;;;;2.10;1.90;;;16.40;44.10;;;;;;4951728;28;95961;-67
2022/03/08 12:32:05;;;;;;;2.10;1.67;;;16.40;44.10;;;;;;4951275;28;93072;-69
2022/03/08 12:34:39;;;;;;;2.35;2.08;;;16.40;44.20;;;;;;4951539;28;92597;-68
2022/03/08 12:37:10;;;;;;;4.20;2.40;;;16.40;44.20;;;;;;4949944;28;93747;-67
2022/03/08 12:40:09;;;;;;;2.92;1.80;;;16.40;44.00;;;;;;4951408;28;93009;-67
2022/03/08 12:42:41;;;;;;;2.40;2.00;;;16.40;44.00;;;;;;4951573;28;92711;-67
2022/03/08 12:45:17;;;;;;;2.50;2.08;;;16.40;44.20;;;;;;4950944;28;92142;-68
2022/03/08 12:47:54;;;;;;;2.25;2.05;;;16.40;44.10;;;;;;4951750;28;93878;-67
2022/03/08 12:50:22;;;;;;;3.25;2.22;;;16.40;44.10;;;;;;4951419;28;92819;-68
2022/03/08 12:52:51;;;;;;;3.17;2.00;;;16.40;44.10;;;;;;4950553;28;94994;-67
2022/03/08 12:55:21;;;;;;;2.25;1.85;;;16.40;44.00;;;;;;4953341;28;92989;-67
2022/03/08 12:57:48;;;;;;;2.30;2.00;;;16.40;44.10;;;;;;4954063;28;93155;-67
2022/03/08 13:00:29;;;;;;;2.17;1.95;;;16.40;44.10;;;;;;4955936;28;92858;-67
2022/03/08 13:02:56;;;;;;;2.15;1.80;;;16.40;44.00;;;;;;4953040;28;92944;-67
2022/03/08 13:05:29;;;;;;;1.95;1.73;;;16.40;44.00;;;;;;4952774;28;92503;-67
2022/03/08 13:07:56;;;;;;;2.30;1.88;;;16.40;44.00;;;;;;4951410;28;93024;-67
2022/03/08 13:10:24;;;;;;;3.35;2.00;;;16.40;44.10;;;;;;4952248;28;92927;-68
2022/03/08 13:12:58;;;;;;;2.70;2.15;;;16.40;44.10;;;;;;4951843;28;92860;-68
2022/03/08 13:15:27;;;;;;;2.33;1.90;;;16.50;44.10;;;;;;4951930;28;92811;-67
2022/03/08 13:17:56;;;;;;;2.28;1.80;;;16.50;44.10;;;;;;4949433;28;96472;-67
2022/03/08 13:20:34;;;;;;;3.30;2.05;;;16.50;45.10;;;;;;4951214;28;96330;-67
2022/03/08 13:23:08;;;;;;;2.72;2.10;;;16.50;44.00;;;;;;4951042;28;92834;-67
2022/03/08 13:25:35;;;;;;;2.60;2.28;;;16.50;44.00;;;;;;4950803;28;92983;-67
2022/03/08 13:28:10;;;;;;;3.47;2.00;;;16.50;44.40;;;;;;4951364;28;94483;-67
2022/03/08 13:30:38;;;;;;;2.55;1.98;;;16.50;44.10;;;;;;4951464;28;93378;-67
2022/03/08 13:33:17;;;;;;;2.83;2.00;;;16.60;44.00;;;;;;4951885;28;92941;-67
2022/03/08 13:35:48;;;;;;;2.85;2.35;;;16.60;44.00;;;;;;4950051;28;92256;-67
2022/03/08 13:38:35;;;;;;;2.50;2.10;;;16.60;43.90;;;;;;4948726;28;94269;-67
2022/03/08 13:41:16;;;;;;;3.20;1.90;;;16.60;43.90;;;;;;4935437;28;92848;-67
2022/03/08 13:43:47;;;;;;;3.20;1.88;;;16.60;43.90;;;;;;4932062;28;95550;-67
2022/03/08 13:46:37;;;;;;;2.17;1.92;;;16.60;43.90;;;;;;4950741;28;93002;-67
2022/03/08 13:49:07;;;;;;;3.47;2.00;;;16.70;43.80;;;;;;4950512;28;93245;-67
2022/03/08 13:51:39;;;;;;;2.60;2.03;;;16.70;43.70;;;;;;4950386;28;92686;-67
2022/03/08 13:54:08;;;;;;;2.17;1.92;;;16.70;43.60;;;;;;4950624;28;92545;-67
2022/03/08 13:56:48;;;;;;;2.38;2.03;;;16.70;43.40;;;;;;4950656;28;92736;-67
2022/03/08 13:59:28;;;;;;;2.28;1.90;;;16.70;43.30;;;;;;4950183;28;94212;-67
2022/03/08 14:02:03;;;;;;;2.00;1.80;;;16.80;43.30;;;;;;4950256;28;93837;-67
2022/03/08 14:04:29;;;;;;;2.10;1.80;;;16.80;43.30;;;;;;4950717;28;92590;-67
2022/03/08 14:06:55;;;;;;;2.05;1.85;;;16.80;43.30;;;;;;4950389;28;92570;-67
2022/03/08 14:09:21;;;;;;;2.58;2.00;;;16.80;43.20;;;;;;4949183;28;95508;-67
2022/03/08 14:11:54;;;;;;;2.05;1.70;;;16.80;43.20;;;;;;4949933;28;95101;-67
2022/03/08 14:14:27;;;;;;;3.45;2.05;;;16.80;43.20;;;;;;4950171;28;92626;-67
2022/03/08 14:16:53;;;;;;;2.35;1.80;;;16.90;43.30;;;;;;4950647;28;92641;-67
2022/03/08 14:19:19;;;;;;;2.22;1.90;;;16.90;43.40;;;;;;4950050;28;93149;-67
2022/03/08 14:21:47;;;;;;;2.30;1.85;;;16.90;44.30;;;;;;4950401;28;92988;-67
2022/03/08 14:24:21;;;;;;;2.53;2.05;;;16.90;43.30;;;;;;4950828;28;93072;-67
2022/03/08 14:27:07;;;;;;;2.95;1.92;;;16.90;43.30;;;;;;4951494;28;91916;-67
2022/03/08 14:29:34;;;;;;;2.08;1.88;;;17.00;43.20;;;;;;4950393;28;93197;-67
2022/03/08 14:32:03;;;;;;;2.05;1.85;;;16.90;43.20;;;;;;4950375;28;96632;-67